Time;durP1;ratioP1;P1;durP2;ratioP2;P2;SDS_P1;SDS_P2;PMS_P1;PMS_P2;Temp;Humidity;BMP_temperature;BMP_pressure;BME280_temperature;BME280_humidity;BME280_pressure;Samples;Min_cycle;Max_cycle;Signal;HPM_P1;HPM_P2
2023/01/20 00:00:52;;;;;;;7.00;5.73;;;5.00;35.90;;;;;;10499795;28;20755;-79
2023/01/20 00:05:57;;;;;;;7.30;6.60;;;5.10;36.10;;;;;;10498866;28;20712;-78
2023/01/20 00:11:04;;;;;;;7.63;6.90;;;5.10;36.20;;;;;;10495567;28;20228;-79
2023/01/20 00:16:10;;;;;;;8.33;6.13;;;5.10;36.10;;;;;;10498321;28;20700;-79
2023/01/20 00:21:15;;;;;;;7.73;5.93;;;5.10;35.90;;;;;;10498578;28;20228;-79
2023/01/20 00:26:20;;;;;;;6.37;5.70;;;5.00;35.70;;;;;;10498252;28;20220;-78
2023/01/20 00:31:26;;;;;;;7.53;5.60;;;4.90;35.70;;;;;;10494322;28;20235;-79
2023/01/20 00:36:32;;;;;;;6.73;6.10;;;4.90;36.00;;;;;;10497210;28;20263;-79
2023/01/20 00:41:35;;;;;;;6.70;6.10;;;4.90;36.30;;;;;;10492773;28;20247;-79
2023/01/20 00:46:38;;;;;;;6.87;6.07;;;4.90;36.30;;;;;;10497102;28;20254;-78
2023/01/20 00:51:43;;;;;;;6.30;5.20;;;5.00;36.60;;;;;;10496366;28;20255;-78
2023/01/20 00:56:46;;;;;;;6.17;5.47;;;5.00;36.70;;;;;;10496683;28;20224;-79
2023/01/20 01:01:49;;;;;;;6.67;6.00;;;5.00;36.60;;;;;;10495473;28;20232;-78
2023/01/20 01:06:54;;;;;;;6.73;5.20;;;5.00;36.60;;;;;;10495750;28;20230;-79
2023/01/20 01:11:57;;;;;;;5.23;4.73;;;5.00;36.50;;;;;;10494327;28;20239;-78
2023/01/20 01:17:00;;;;;;;5.27;4.77;;;5.00;36.60;;;;;;10495655;28;20228;-79
2023/01/20 01:22:04;;;;;;;4.87;4.47;;;5.00;37.20;;;;;;10494541;28;20228;-77
2023/01/20 01:27:08;;;;;;;5.17;4.67;;;5.00;36.70;;;;;;10494286;28;20231;-78
2023/01/20 01:32:11;;;;;;;4.70;4.30;;;5.00;36.60;;;;;;10494427;28;20617;-79
2023/01/20 01:37:16;;;;;;;5.03;4.53;;;5.00;36.60;;;;;;10494394;28;20236;-78
2023/01/20 01:42:23;;;;;;;6.77;6.07;;;5.00;36.70;;;;;;10494028;28;20247;-79
2023/01/20 01:47:26;;;;;;;5.70;5.10;;;5.00;36.60;;;;;;10493909;28;20599;-78
2023/01/20 01:52:32;;;;;;;6.20;5.60;;;4.90;37.30;;;;;;10493329;28;20236;-79
2023/01/20 01:57:35;;;;;;;5.77;5.13;;;5.00;36.80;;;;;;10493110;28;20231;-79
2023/01/20 02:02:39;;;;;;;5.17;4.77;;;4.90;36.50;;;;;;10492554;28;20246;-79
2023/01/20 02:07:46;;;;;;;6.13;5.60;;;4.80;36.50;;;;;;10493415;28;20259;-79
2023/01/20 02:12:50;;;;;;;6.30;5.70;;;4.80;36.60;;;;;;10492680;28;20611;-77
2023/01/20 02:18:12;;;;;;;6.07;5.57;;;4.80;36.60;;;;;;10492762;28;20250;-78
2023/01/20 02:23:32;;;;;;;6.43;5.83;;;4.70;36.50;;;;;;10494746;28;20238;-79
2023/01/20 02:29:05;;;;;;;6.80;6.10;;;4.70;36.60;;;;;;10501214;28;20231;-77
2023/01/20 02:34:16;;;;;;;7.23;6.53;;;4.70;36.60;;;;;;10501014;28;20244;-78
2023/01/20 02:39:25;;;;;;;6.03;5.43;;;4.60;36.50;;;;;;10500818;28;20270;-79
2023/01/20 02:44:35;;;;;;;7.37;5.70;;;4.60;36.50;;;;;;10500993;28;20262;-79
2023/01/20 02:49:46;;;;;;;5.90;5.40;;;4.60;36.50;;;;;;10500063;28;20236;-78
2023/01/20 02:54:53;;;;;;;6.47;5.87;;;4.50;36.40;;;;;;10500261;28;20235;-79
2023/01/20 03:00:04;;;;;;;6.27;5.67;;;4.50;36.40;;;;;;10500366;28;20744;-76
2023/01/20 03:05:14;;;;;;;5.97;5.47;;;4.50;36.40;;;;;;10499787;28;20646;-78
2023/01/20 03:10:21;;;;;;;5.77;5.27;;;4.50;36.30;;;;;;10499523;28;20243;-78
2023/01/20 03:15:32;;;;;;;6.20;5.70;;;4.50;36.40;;;;;;10499230;28;20264;-78
2023/01/20 03:20:37;;;;;;;7.73;6.33;;;4.50;36.40;;;;;;10498971;28;20724;-78
2023/01/20 03:25:41;;;;;;;6.43;5.83;;;4.50;36.40;;;;;;10498793;28;20254;-78
2023/01/20 03:30:44;;;;;;;6.27;5.30;;;4.60;36.50;;;;;;10498070;28;20232;-79
2023/01/20 03:35:49;;;;;;;5.77;5.10;;;4.50;36.40;;;;;;10497191;28;20235;-76
2023/01/20 03:41:00;;;;;;;6.67;5.97;;;4.50;36.40;;;;;;10497590;28;20724;-79
2023/01/20 03:46:11;;;;;;;5.83;5.27;;;4.50;36.40;;;;;;10497425;28;20732;-79
2023/01/20 03:51:22;;;;;;;6.23;5.63;;;4.50;36.40;;;;;;10497244;28;20792;-78
2023/01/20 03:56:31;;;;;;;7.17;6.30;;;4.50;36.40;;;;;;10497135;28;20700;-79
2023/01/20 04:01:37;;;;;;;6.13;5.57;;;4.50;36.40;;;;;;10496284;28;20232;-77
2023/01/20 04:06:43;;;;;;;6.73;6.13;;;4.50;36.40;;;;;;10496398;28;20311;-78
2023/01/20 04:11:47;;;;;;;7.33;6.00;;;4.50;36.40;;;;;;10496491;28;20232;-77
2023/01/20 04:16:52;;;;;;;5.73;5.23;;;4.50;36.40;;;;;;10496118;28;20239;-79
2023/01/20 04:22:03;;;;;;;6.83;5.77;;;4.50;36.40;;;;;;10496095;28;20278;-78
2023/01/20 04:27:06;;;;;;;6.40;5.77;;;4.50;36.40;;;;;;10495815;28;20232;-78
2023/01/20 04:32:11;;;;;;;6.73;5.57;;;4.40;36.30;;;;;;10495110;28;20232;-79
2023/01/20 04:37:15;;;;;;;5.73;5.13;;;4.30;36.20;;;;;;10495163;28;20712;-79
2023/01/20 04:42:18;;;;;;;6.07;5.47;;;4.20;36.30;;;;;;10494921;28;20232;-78
2023/01/20 04:47:21;;;;;;;6.17;5.23;;;4.10;36.60;;;;;;10494975;28;20644;-79
2023/01/20 04:52:26;;;;;;;6.43;5.83;;;4.10;36.60;;;;;;10495294;28;20608;-79
2023/01/20 04:57:29;;;;;;;8.77;6.80;;;4.10;37.40;;;;;;10494939;28;20225;-79
2023/01/20 05:02:33;;;;;;;6.83;6.20;;;4.10;36.50;;;;;;10494951;28;20236;-77
2023/01/20 05:07:37;;;;;;;6.73;6.03;;;4.20;36.60;;;;;;10494554;28;20708;-79
2023/01/20 05:12:41;;;;;;;7.17;5.73;;;4.10;36.30;;;;;;10493948;28;20792;-78
2023/01/20 05:17:44;;;;;;;8.30;5.67;;;4.00;36.40;;;;;;10493330;28;20613;-79
2023/01/20 05:22:48;;;;;;;7.20;6.03;;;4.00;36.70;;;;;;10493399;28;20228;-77
2023/01/20 05:27:54;;;;;;;6.50;5.93;;;4.10;36.90;;;;;;10493398;28;20220;-79
2023/01/20 05:32:58;;;;;;;6.70;6.00;;;3.90;36.80;;;;;;10492601;28;20232;-79
2023/01/20 05:38:02;;;;;;;7.67;6.60;;;4.10;36.80;;;;;;10492707;28;20636;-79
2023/01/20 05:43:05;;;;;;;6.77;6.07;;;3.90;36.70;;;;;;10492708;28;20236;-79
2023/01/20 05:48:08;;;;;;;8.10;7.20;;;3.90;36.60;;;;;;10489764;28;20224;-77
2023/01/20 05:53:13;;;;;;;7.53;6.73;;;3.90;36.60;;;;;;10489927;28;20232;-77
2023/01/20 05:58:16;;;;;;;7.97;6.97;;;3.80;36.60;;;;;;10489411;28;20232;-77
2023/01/20 06:03:19;;;;;;;8.07;7.30;;;3.80;36.70;;;;;;10489780;28;20236;-77
2023/01/20 06:08:24;;;;;;;7.53;6.83;;;3.90;36.80;;;;;;10489802;28;20248;-76
2023/01/20 06:13:27;;;;;;;7.67;6.77;;;3.80;36.70;;;;;;10489474;28;20236;-76
2023/01/20 06:18:30;;;;;;;6.60;6.00;;;3.70;36.80;;;;;;10489111;28;20239;-76
2023/01/20 06:23:35;;;;;;;6.87;6.27;;;3.70;37.00;;;;;;10488995;28;20289;-76
2023/01/20 06:28:38;;;;;;;7.30;6.60;;;3.70;37.30;;;;;;10488758;28;20601;-76
2023/01/20 06:33:41;;;;;;;7.23;6.53;;;3.90;37.30;;;;;;10487649;28;20236;-75
2023/01/20 06:38:49;;;;;;;13.83;10.90;;;3.70;37.30;;;;;;10486444;28;20807;-75
2023/01/20 06:43:52;;;;;;;12.27;9.37;;;3.80;37.30;;;;;;10487343;28;20274;-75
2023/01/20 06:48:59;;;;;;;11.23;9.70;;;3.80;37.00;;;;;;10487574;28;20228;-75
2023/01/20 06:54:04;;;;;;;10.60;8.73;;;3.80;37.10;;;;;;10487689;28;20724;-75
2023/01/20 06:59:07;;;;;;;8.17;7.07;;;3.70;37.30;;;;;;10487830;28;20235;-75
2023/01/20 07:04:13;;;;;;;8.47;6.77;;;3.80;37.30;;;;;;10487792;28;20228;-75
2023/01/20 07:09:18;;;;;;;8.57;7.33;;;3.80;37.50;;;;;;10489524;28;20308;-75
2023/01/20 07:14:21;;;;;;;8.57;7.77;;;3.80;37.50;;;;;;10495238;28;20267;-75
2023/01/20 07:19:25;;;;;;;8.03;7.03;;;3.90;37.50;;;;;;10495013;28;20224;-76
2023/01/20 07:24:29;;;;;;;7.80;7.00;;;3.90;37.40;;;;;;10494898;28;20232;-76
2023/01/20 07:29:32;;;;;;;8.00;7.20;;;3.90;37.30;;;;;;10494656;28;20228;-76
2023/01/20 07:34:35;;;;;;;8.30;7.37;;;3.90;37.30;;;;;;10494502;28;20232;-75
2023/01/20 07:39:41;;;;;;;8.77;7.87;;;3.80;37.10;;;;;;10494098;28;20255;-75
2023/01/20 07:44:44;;;;;;;8.60;7.70;;;3.80;37.40;;;;;;10493985;28;20781;-76
2023/01/20 07:49:47;;;;;;;8.90;8.10;;;3.80;37.40;;;;;;10493930;28;20228;-76
2023/01/20 07:54:51;;;;;;;9.50;8.47;;;3.80;37.50;;;;;;10493889;28;20238;-76
2023/01/20 07:59:55;;;;;;;10.03;9.03;;;4.00;37.80;;;;;;10493643;28;20224;-75
2023/01/20 08:04:58;;;;;;;9.43;8.53;;;3.90;37.70;;;;;;10493444;28;20234;-75
2023/01/20 08:10:03;;;;;;;10.80;9.80;;;3.90;37.60;;;;;;10493222;28;20311;-76
2023/01/20 08:15:08;;;;;;;10.93;9.83;;;3.90;37.70;;;;;;10493107;28;20232;-76
2023/01/20 08:20:12;;;;;;;10.13;9.13;;;4.00;37.80;;;;;;10493290;28;20742;-75
2023/01/20 08:25:16;;;;;;;10.73;9.73;;;4.00;37.70;;;;;;10492777;28;20232;-75
2023/01/20 08:30:20;;;;;;;11.40;10.30;;;4.00;37.80;;;;;;10493298;28;20238;-76
2023/01/20 08:35:23;;;;;;;12.73;10.47;;;4.10;37.80;;;;;;10492818;28;20278;-76
2023/01/20 08:40:28;;;;;;;11.20;10.03;;;4.10;37.70;;;;;;10492723;28;20631;-76
2023/01/20 08:45:31;;;;;;;11.10;9.73;;;4.10;38.00;;;;;;10493054;28;20243;-76
2023/01/20 08:50:34;;;;;;;12.57;11.27;;;4.10;38.00;;;;;;10492578;28;20235;-76
2023/01/20 08:55:39;;;;;;;11.80;10.60;;;4.20;38.20;;;;;;10491183;28;20236;-76
2023/01/20 09:00:42;;;;;;;11.60;10.50;;;4.20;38.30;;;;;;10492139;28;20251;-76
2023/01/20 09:05:45;;;;;;;11.57;10.47;;;4.20;38.20;;;;;;10492249;28;20753;-76
2023/01/20 09:10:50;;;;;;;14.00;12.53;;;4.20;38.20;;;;;;10492484;28;20239;-76
2023/01/20 09:15:53;;;;;;;13.23;12.00;;;4.20;38.50;;;;;;10490995;28;20228;-77
2023/01/20 09:20:58;;;;;;;13.53;12.23;;;4.20;38.40;;;;;;10492445;28;20242;-76
2023/01/20 09:26:04;;;;;;;13.23;11.93;;;4.30;38.70;;;;;;10492516;28;20242;-77
2023/01/20 09:31:08;;;;;;;13.40;12.13;;;4.20;38.80;;;;;;10488190;28;20231;-76
2023/01/20 09:36:12;;;;;;;13.40;12.10;;;4.20;38.90;;;;;;10487859;28;20224;-77
2023/01/20 09:47:20;;;;;;;14.10;12.70;;;4.20;39.30;;;;;;10413008;28;20734;-77
2023/01/20 09:58:01;;;;;;;14.27;12.93;;;4.60;39.50;;;;;;10491158;28;20231;-77
2023/01/20 10:03:11;;;;;;;15.13;13.73;;;4.60;39.50;;;;;;10490823;28;20228;-77
2023/01/20 10:08:20;;;;;;;15.73;14.13;;;4.50;39.70;;;;;;10491962;28;20720;-77
2023/01/20 10:13:31;;;;;;;14.80;13.30;;;4.50;39.00;;;;;;10491189;28;20236;-77
2023/01/20 10:18:41;;;;;;;16.40;14.70;;;4.40;39.10;;;;;;10490877;28;20224;-77
2023/01/20 10:23:50;;;;;;;16.67;14.93;;;4.40;39.10;;;;;;10490188;28;20603;-76
2023/01/20 10:29:00;;;;;;;16.97;15.27;;;4.40;39.20;;;;;;10489727;28;20259;-77
2023/01/20 10:34:10;;;;;;;16.20;14.63;;;4.40;39.60;;;;;;10492337;28;20232;-77
2023/01/20 10:39:25;;;;;;;21.97;19.70;;;4.40;39.40;;;;;;10490650;28;20240;-77
2023/01/20 10:44:34;;;;;;;16.93;15.23;;;4.30;39.70;;;;;;10491249;28;20231;-77
2023/01/20 10:50:05;;;;;;;16.63;15.07;;;4.40;39.70;;;;;;10499140;28;20235;-77
2023/01/20 10:55:22;;;;;;;15.50;14.10;;;4.40;39.80;;;;;;10498283;28;20259;-77
2023/01/20 11:00:30;;;;;;;15.77;14.27;;;4.50;40.00;;;;;;10498130;28;20239;-75
2023/01/20 11:05:37;;;;;;;16.40;14.90;;;4.50;39.60;;;;;;10494764;28;20228;-75
2023/01/20 11:10:40;;;;;;;16.57;15.00;;;4.50;39.50;;;;;;10501222;28;20228;-74
2023/01/20 11:15:48;;;;;;;17.27;15.53;;;4.50;39.40;;;;;;10500095;28;20340;-76
2023/01/20 11:20:54;;;;;;;18.60;16.70;;;4.50;39.70;;;;;;10500490;28;20315;-76
2023/01/20 11:25:59;;;;;;;17.53;15.83;;;4.50;39.60;;;;;;10501337;28;20700;-75
2023/01/20 11:31:04;;;;;;;18.03;16.23;;;4.50;39.60;;;;;;10500939;28;20228;-76
2023/01/20 11:36:17;;;;;;;17.33;15.83;;;4.60;39.70;;;;;;10497335;28;20232;-76
2023/01/20 11:41:22;;;;;;;17.13;15.47;;;4.60;40.00;;;;;;10501656;28;20240;-76
2023/01/20 11:46:29;;;;;;;17.60;15.90;;;4.70;39.70;;;;;;10500765;28;20227;-76
2023/01/20 11:51:32;;;;;;;19.20;17.20;;;4.70;40.00;;;;;;10502973;28;20232;-76
2023/01/20 11:56:40;;;;;;;18.13;16.33;;;4.70;39.70;;;;;;10502339;28;20228;-76
2023/01/20 12:01:56;;;;;;;17.37;15.77;;;4.80;40.10;;;;;;10503388;28;20287;-75
2023/01/20 12:07:03;;;;;;;16.60;15.03;;;4.80;40.30;;;;;;10504281;28;20234;-75
2023/01/20 12:12:12;;;;;;;17.97;16.23;;;4.80;40.00;;;;;;10502506;28;20232;-75
2023/01/20 12:17:40;;;;;;;19.17;17.37;;;4.80;40.00;;;;;;10501180;28;20250;-76
2023/01/20 12:22:58;;;;;;;17.17;15.53;;;4.90;40.50;;;;;;10501650;28;20693;-76
2023/01/20 12:28:09;;;;;;;18.43;16.63;;;4.90;40.30;;;;;;10500917;28;20258;-76
2023/01/20 12:33:25;;;;;;;18.77;16.97;;;5.00;40.00;;;;;;10501114;28;20232;-76
2023/01/20 12:38:34;;;;;;;19.13;17.27;;;5.00;40.50;;;;;;10503226;28;20224;-75
2023/01/20 12:43:50;;;;;;;17.50;15.80;;;5.00;39.90;;;;;;10499685;28;20247;-74
2023/01/20 12:49:13;;;;;;;20.43;18.33;;;5.00;39.90;;;;;;10501928;28;20729;-74
2023/01/20 12:54:40;;;;;;;19.47;17.57;;;5.00;40.40;;;;;;10502465;28;20232;-74
2023/01/20 13:00:02;;;;;;;19.93;17.97;;;5.00;40.70;;;;;;10501716;28;20228;-74
2023/01/20 13:05:27;;;;;;;20.07;17.97;;;5.00;40.30;;;;;;10502337;28;20329;-74
2023/01/20 13:10:46;;;;;;;21.53;19.23;;;5.10;40.70;;;;;;10502156;28;20240;-73
2023/01/20 13:15:57;;;;;;;19.70;17.63;;;5.10;40.80;;;;;;10493957;28;20243;-73
2023/01/20 13:21:02;;;;;;;20.90;18.47;;;5.10;40.10;;;;;;10491982;28;20240;-73
2023/01/20 13:26:06;;;;;;;20.73;18.47;;;5.20;40.30;;;;;;10494789;28;20228;-74
2023/01/20 13:31:32;;;;;;;19.37;17.43;;;5.20;40.20;;;;;;10495484;28;20232;-75
2023/01/20 13:36:37;;;;;;;17.53;15.70;;;5.20;41.20;;;;;;10493122;28;20720;-75
2023/01/20 13:41:49;;;;;;;17.67;15.87;;;5.20;40.10;;;;;;10496831;28;20241;-74
2023/01/20 13:46:53;;;;;;;16.17;14.40;;;5.30;40.70;;;;;;10484934;28;20225;-74
2023/01/20 13:51:57;;;;;;;19.50;17.47;;;5.30;40.10;;;;;;10497093;28;20239;-74
2023/01/20 13:57:35;;;;;;;18.33;16.47;;;5.30;40.40;;;;;;10495225;28;20780;-74
2023/01/20 14:02:38;;;;;;;18.63;16.73;;;5.30;41.70;;;;;;10328368;28;20246;-74
2023/01/20 14:07:44;;;;;;;19.20;17.20;;;5.40;40.30;;;;;;10451722;28;20795;-72
2023/01/20 14:12:47;;;;;;;18.80;16.83;;;5.40;40.80;;;;;;10492763;28;20235;-74
2023/01/20 14:17:54;;;;;;;19.90;17.83;;;5.50;40.40;;;;;;10496488;28;20264;-74
2023/01/20 14:23:27;;;;;;;18.00;16.20;;;5.50;40.50;;;;;;10498736;28;20719;-74
2023/01/20 14:28:31;;;;;;;19.23;17.20;;;5.50;40.80;;;;;;10499965;28;20303;-74
2023/01/20 14:33:34;;;;;;;20.73;18.53;;;5.50;40.10;;;;;;10491962;28;20247;-73
2023/01/20 14:38:39;;;;;;;18.90;17.03;;;5.50;40.00;;;;;;10485595;28;20235;-73
2023/01/20 14:43:59;;;;;;;20.57;18.40;;;5.40;40.10;;;;;;10486331;28;20227;-72
2023/01/20 14:49:03;;;;;;;18.00;15.80;;;5.40;40.20;;;;;;10484588;28;20534;-72
2023/01/20 14:54:43;;;;;;;19.27;17.20;;;5.30;40.40;;;;;;10483475;28;20240;-73
2023/01/20 15:00:00;;;;;;;17.87;16.07;;;5.30;41.40;;;;;;10482799;28;20624;-71
2023/01/20 15:05:26;;;;;;;17.83;16.00;;;5.20;40.50;;;;;;10485418;28;20224;-72
2023/01/20 15:10:29;;;;;;;17.80;16.00;;;5.20;41.10;;;;;;10486614;28;20262;-72
2023/01/20 15:15:34;;;;;;;19.90;17.80;;;5.30;40.50;;;;;;10483571;28;20254;-72
2023/01/20 15:20:40;;;;;;;19.47;17.30;;;5.30;40.80;;;;;;10483703;28;20380;-72
2023/01/20 15:25:43;;;;;;;17.73;15.97;;;5.30;40.80;;;;;;10482469;28;20228;-72
2023/01/20 15:30:48;;;;;;;17.53;15.73;;;5.30;40.60;;;;;;10485512;28;20704;-73
2023/01/20 15:35:54;;;;;;;17.63;15.73;;;5.30;40.80;;;;;;10494526;28;20235;-73
2023/01/20 15:40:57;;;;;;;16.17;14.57;;;5.30;40.70;;;;;;10498053;28;20301;-73
2023/01/20 15:46:02;;;;;;;15.40;13.80;;;5.30;40.50;;;;;;10501526;28;20228;-73
2023/01/20 15:51:06;;;;;;;14.40;12.83;;;5.30;40.80;;;;;;10499730;28;20224;-72
2023/01/20 15:56:16;;;;;;;14.03;12.63;;;5.20;40.60;;;;;;10500647;28;20255;-73
2023/01/20 16:01:23;;;;;;;14.07;12.67;;;5.10;41.30;;;;;;10499514;28;20232;-73
2023/01/20 16:06:30;;;;;;;12.77;11.43;;;5.10;41.00;;;;;;10506149;28;20266;-73
2023/01/20 16:11:33;;;;;;;11.67;10.43;;;5.10;40.80;;;;;;10505158;28;20236;-73
2023/01/20 16:16:37;;;;;;;14.60;12.87;;;5.10;40.60;;;;;;10505221;28;20231;-73
2023/01/20 16:21:41;;;;;;;14.83;13.43;;;5.10;40.80;;;;;;10499318;28;20236;-73
2023/01/20 16:26:47;;;;;;;15.67;14.07;;;5.10;40.60;;;;;;10498820;28;20299;-73
2023/01/20 16:31:52;;;;;;;14.50;12.97;;;5.10;40.70;;;;;;10498423;28;20740;-73
2023/01/20 16:36:55;;;;;;;16.67;14.33;;;5.10;40.90;;;;;;10501255;28;20248;-72
2023/01/20 16:41:58;;;;;;;14.70;12.47;;;5.10;40.50;;;;;;10500917;28;20239;-72
2023/01/20 16:47:03;;;;;;;14.00;12.17;;;5.00;40.40;;;;;;10502034;28;20971;-72
2023/01/20 16:52:06;;;;;;;13.60;11.10;;;4.90;40.50;;;;;;10502428;28;20247;-70
2023/01/20 16:57:10;;;;;;;12.27;11.03;;;4.90;40.50;;;;;;10500661;28;20232;-71
2023/01/20 17:02:16;;;;;;;12.93;11.00;;;4.90;40.90;;;;;;10498549;28;20537;-72
2023/01/20 17:07:19;;;;;;;12.40;9.33;;;4.90;41.00;;;;;;10501594;28;20232;-72
2023/01/20 17:12:22;;;;;;;10.30;9.20;;;4.80;40.70;;;;;;10504151;28;20240;-72
2023/01/20 17:17:27;;;;;;;11.43;8.97;;;4.70;40.70;;;;;;10501679;28;20251;-71
2023/01/20 17:22:30;;;;;;;10.03;8.67;;;4.60;41.10;;;;;;10499523;28;20232;-72
2023/01/20 17:27:33;;;;;;;9.30;8.40;;;4.50;41.10;;;;;;10498481;28;20293;-72
2023/01/20 17:32:38;;;;;;;9.80;8.80;;;4.40;41.30;;;;;;10495184;28;20235;-71
2023/01/20 17:37:41;;;;;;;10.97;8.87;;;4.30;41.40;;;;;;10498285;28;20228;-72
2023/01/20 17:42:45;;;;;;;10.80;8.93;;;4.50;41.50;;;;;;10496566;28;20232;-71
2023/01/20 17:47:51;;;;;;;10.70;8.73;;;4.30;41.30;;;;;;10495484;28;20229;-71
2023/01/20 17:52:55;;;;;;;12.17;9.43;;;4.30;41.90;;;;;;10493494;28;20316;-71
2023/01/20 17:57:58;;;;;;;11.53;9.40;;;4.20;41.40;;;;;;10489766;28;20250;-70
2023/01/20 18:03:02;;;;;;;10.57;9.10;;;4.20;41.70;;;;;;10489074;28;20247;-71
2023/01/20 18:08:05;;;;;;;9.07;7.90;;;4.10;41.80;;;;;;10487410;28;20229;-71
2023/01/20 18:13:09;;;;;;;10.03;9.00;;;4.20;41.50;;;;;;10489811;28;20236;-71
2023/01/20 18:18:13;;;;;;;9.23;8.30;;;4.20;41.50;;;;;;10489876;28;20661;-71
2023/01/20 18:23:16;;;;;;;9.30;8.40;;;4.30;41.50;;;;;;10489711;28;20232;-71
2023/01/20 18:28:19;;;;;;;9.87;8.73;;;4.30;41.20;;;;;;10490046;28;20239;-71
2023/01/20 18:33:24;;;;;;;9.30;8.40;;;4.50;41.30;;;;;;10490313;28;20281;-71
2023/01/20 18:38:27;;;;;;;9.77;8.77;;;4.40;41.20;;;;;;10489362;28;20236;-70
2023/01/20 18:43:30;;;;;;;10.83;9.50;;;4.50;41.10;;;;;;10489249;28;20228;-71
2023/01/20 18:48:37;;;;;;;11.13;9.53;;;4.60;41.00;;;;;;10489462;28;20301;-71
2023/01/20 18:53:42;;;;;;;9.33;8.37;;;4.50;41.20;;;;;;10488782;28;20224;-70
2023/01/20 18:58:46;;;;;;;9.80;8.90;;;4.50;40.90;;;;;;10488340;28;20224;-71
2023/01/20 19:03:51;;;;;;;12.43;9.37;;;4.60;41.00;;;;;;10489585;28;20264;-71
2023/01/20 19:08:56;;;;;;;10.83;9.57;;;4.50;41.00;;;;;;10496941;28;20228;-71
2023/01/20 19:13:59;;;;;;;11.97;10.53;;;4.50;40.90;;;;;;10496539;28;20683;-71
2023/01/20 19:19:06;;;;;;;11.77;10.07;;;4.50;40.80;;;;;;10496639;28;20231;-72
2023/01/20 19:24:14;;;;;;;11.63;10.43;;;4.50;41.00;;;;;;10496289;28;20731;-71
2023/01/20 19:29:18;;;;;;;13.23;10.87;;;4.40;40.80;;;;;;10496001;28;20229;-71
2023/01/20 19:34:23;;;;;;;11.73;10.30;;;4.40;40.80;;;;;;10496076;28;20727;-71
2023/01/20 19:39:26;;;;;;;12.50;10.50;;;4.40;41.00;;;;;;10495621;28;20232;-71
2023/01/20 19:44:29;;;;;;;12.03;10.73;;;4.40;40.90;;;;;;10495559;28;20315;-71
2023/01/20 19:49:34;;;;;;;10.37;9.27;;;4.40;40.80;;;;;;10495737;28;20648;-71
2023/01/20 19:54:38;;;;;;;11.47;10.33;;;4.40;41.00;;;;;;10495175;28;20239;-71
2023/01/20 19:59:41;;;;;;;11.47;10.27;;;4.50;41.00;;;;;;10495112;28;20743;-71
2023/01/20 20:04:46;;;;;;;12.90;10.80;;;4.50;40.80;;;;;;10494952;28;20236;-71
2023/01/20 20:09:50;;;;;;;11.93;10.73;;;4.60;40.90;;;;;;10494926;28;20228;-71
2023/01/20 20:14:54;;;;;;;12.17;10.90;;;4.60;40.70;;;;;;10494996;28;20228;-71
2023/01/20 20:19:58;;;;;;;12.73;11.43;;;4.60;40.60;;;;;;10493413;28;20242;-71
2023/01/20 20:25:01;;;;;;;13.43;11.47;;;4.70;41.40;;;;;;10494193;28;20277;-71
2023/01/20 20:30:06;;;;;;;12.63;11.43;;;4.70;40.50;;;;;;10493442;28;20644;-71
2023/01/20 20:35:11;;;;;;;15.17;13.13;;;4.60;40.40;;;;;;10493718;28;20746;-71
2023/01/20 20:40:14;;;;;;;12.73;11.37;;;4.60;40.40;;;;;;10493029;28;20231;-71
2023/01/20 20:45:18;;;;;;;13.27;11.97;;;4.50;40.40;;;;;;10492784;28;20323;-70
2023/01/20 20:50:24;;;;;;;13.67;12.37;;;4.50;40.50;;;;;;10493131;28;25413;-71
2023/01/20 20:55:28;;;;;;;15.50;14.00;;;4.60;40.60;;;;;;10492481;28;20599;-71
2023/01/20 21:00:31;;;;;;;14.37;12.97;;;4.60;40.50;;;;;;10492456;28;20247;-71
2023/01/20 21:05:35;;;;;;;13.47;11.90;;;4.60;40.30;;;;;;10491849;28;20228;-71
2023/01/20 21:10:40;;;;;;;14.17;12.30;;;4.60;40.30;;;;;;10492023;28;20224;-70
2023/01/20 21:15:43;;;;;;;14.37;12.87;;;4.60;40.30;;;;;;10491509;28;20228;-71
2023/01/20 21:20:54;;;;;;;13.70;12.30;;;4.60;40.20;;;;;;10491346;28;20246;-71
2023/01/20 21:26:00;;;;;;;13.33;11.93;;;4.50;40.50;;;;;;10490854;28;20244;-71
2023/01/20 21:31:06;;;;;;;14.00;11.90;;;4.30;40.30;;;;;;10490826;28;20274;-70
2023/01/20 21:36:11;;;;;;;13.30;11.83;;;4.20;40.30;;;;;;10490751;28;20739;-71
2023/01/20 21:41:15;;;;;;;13.93;12.43;;;4.10;40.20;;;;;;10490698;28;20236;-71
2023/01/20 21:46:19;;;;;;;13.70;11.53;;;4.00;40.30;;;;;;10490798;28;20741;-71
2023/01/20 21:56:44;;;;;;;13.47;12.07;;;3.90;40.60;;;;;;10491287;28;20228;-71
2023/01/20 22:01:47;;;;;;;13.93;12.33;;;3.80;40.50;;;;;;10490926;28;20228;-71
2023/01/20 22:06:52;;;;;;;14.50;12.23;;;3.70;40.70;;;;;;10490277;28;20255;-70
2023/01/20 22:11:55;;;;;;;15.07;12.80;;;3.60;41.00;;;;;;10490142;28;20232;-71
2023/01/20 22:16:58;;;;;;;18.03;14.93;;;3.60;41.00;;;;;;10489015;28;20228;-71
2023/01/20 22:22:03;;;;;;;18.27;15.20;;;3.60;41.20;;;;;;10487861;28;20235;-71
2023/01/20 22:27:07;;;;;;;14.60;13.03;;;3.50;41.50;;;;;;10487519;28;20239;-71
2023/01/20 22:32:10;;;;;;;16.03;12.83;;;3.50;41.20;;;;;;10487086;28;20236;-71
2023/01/20 22:37:14;;;;;;;14.47;12.37;;;3.50;41.40;;;;;;10487628;28;20232;-71
2023/01/20 22:42:17;;;;;;;12.80;11.50;;;3.70;41.70;;;;;;10492561;28;20258;-71
2023/01/20 22:47:20;;;;;;;15.90;13.43;;;3.70;41.40;;;;;;10495384;28;20317;-70
2023/01/20 22:52:25;;;;;;;16.67;13.93;;;3.80;41.30;;;;;;10495754;28;20236;-71
2023/01/20 22:57:29;;;;;;;14.77;13.27;;;3.70;41.20;;;;;;10495500;28;20278;-70
2023/01/20 23:02:33;;;;;;;15.10;13.37;;;3.70;41.10;;;;;;10495141;28;20228;-71
2023/01/20 23:07:37;;;;;;;14.77;12.87;;;3.70;41.00;;;;;;10495183;28;20239;-71
2023/01/20 23:12:40;;;;;;;12.77;11.47;;;3.80;41.10;;;;;;10494509;28;20247;-71
2023/01/20 23:17:43;;;;;;;12.83;11.27;;;3.80;40.90;;;;;;10494399;28;20230;-71
2023/01/20 23:22:48;;;;;;;13.30;12.00;;;3.80;40.80;;;;;;10494462;28;20235;-71
2023/01/20 23:27:51;;;;;;;14.20;12.80;;;3.80;40.90;;;;;;10494071;28;20231;-71
2023/01/20 23:32:54;;;;;;;12.17;10.57;;;3.80;40.80;;;;;;10494354;28;20771;-71
2023/01/20 23:37:58;;;;;;;13.33;12.03;;;3.90;40.80;;;;;;10493724;28;20647;-71
2023/01/20 23:43:02;;;;;;;13.00;11.53;;;3.80;40.80;;;;;;10493357;28;20247;-71
2023/01/20 23:48:05;;;;;;;13.40;12.00;;;3.80;40.70;;;;;;10494238;28;20236;-71
2023/01/20 23:53:10;;;;;;;13.30;11.90;;;3.80;40.70;;;;;;10491629;28;20972;-71
2023/01/20 23:58:13;;;;;;;12.80;11.50;;;3.80;40.70;;;;;;10493831;28;20232;-71
